Time;durP1;ratioP1;P1;durP2;ratioP2;P2;SDS_P1;SDS_P2;PMS_P1;PMS_P2;Temp;Humidity;BMP_temperature;BMP_pressure;BME280_temperature;BME280_humidity;BME280_pressure;Samples;Min_cycle;Max_cycle;Signal;HPM_P1;HPM_P2
2024/01/31 00:01:33;;;;;;;4.40;3.83;;;7.60;99.90;;;;;;4968803;28;20189;-84
2024/01/31 00:03:59;;;;;;;4.70;3.70;;;7.60;99.90;;;;;;4997189;28;20624;-86
2024/01/31 00:06:24;;;;;;;4.37;3.40;;;7.60;99.90;;;;;;4965686;28;20216;-84
2024/01/31 00:08:50;;;;;;;6.57;3.60;;;7.50;99.90;;;;;;4959043;28;20271;-85
2024/01/31 00:11:16;;;;;;;5.63;3.90;;;7.60;99.90;;;;;;4969301;28;20570;-85
2024/01/31 00:13:42;;;;;;;5.13;4.10;;;7.50;99.90;;;;;;4980206;28;20246;-85
2024/01/31 00:16:08;;;;;;;6.00;3.90;;;7.50;99.90;;;;;;4972182;28;20236;-85
2024/01/31 00:18:34;;;;;;;5.83;4.30;;;7.50;99.90;;;;;;4988933;28;20287;-87
2024/01/31 00:21:00;;;;;;;5.60;4.23;;;7.50;99.90;;;;;;4980730;28;20186;-84
2024/01/31 00:23:25;;;;;;;4.63;3.60;;;7.50;99.90;;;;;;4971786;28;20283;-85
2024/01/31 00:25:51;;;;;;;4.93;3.57;;;7.60;99.90;;;;;;4976998;28;20181;-84
2024/01/31 00:28:17;;;;;;;5.80;3.93;;;7.60;99.90;;;;;;4977333;28;20213;-85
2024/01/31 00:30:44;;;;;;;5.30;3.40;;;7.60;99.90;;;;;;4980348;28;20226;-83
2024/01/31 00:33:10;;;;;;;4.83;3.57;;;7.70;99.90;;;;;;4973825;28;20198;-86
2024/01/31 00:35:36;;;;;;;4.93;3.30;;;7.70;99.90;;;;;;4967716;28;20185;-84
2024/01/31 00:38:02;;;;;;;2.97;2.53;;;7.70;99.90;;;;;;4972672;28;20183;-84
2024/01/31 00:40:27;;;;;;;3.27;2.53;;;7.70;99.90;;;;;;4972654;28;20185;-85
2024/01/31 00:42:53;;;;;;;3.67;2.40;;;7.80;99.90;;;;;;4991024;28;20273;-86
2024/01/31 00:45:19;;;;;;;3.57;1.93;;;7.80;99.90;;;;;;4970257;28;20189;-86
2024/01/31 00:47:45;;;;;;;2.70;1.90;;;7.70;99.90;;;;;;4967022;28;20603;-85
2024/01/31 00:50:12;;;;;;;1.93;1.50;;;7.60;99.90;;;;;;4975425;28;20199;-87
2024/01/31 00:52:39;;;;;;;1.70;1.40;;;7.60;99.90;;;;;;4974837;28;20188;-85
2024/01/31 00:55:06;;;;;;;1.63;1.20;;;7.50;99.90;;;;;;4971758;28;20209;-84
2024/01/31 00:57:32;;;;;;;1.33;1.17;;;7.50;99.90;;;;;;4965160;28;20189;-83
2024/01/31 00:59:58;;;;;;;2.53;1.10;;;7.40;99.90;;;;;;4991300;28;20200;-85
2024/01/31 01:02:24;;;;;;;1.73;1.00;;;7.40;99.90;;;;;;4964446;28;20570;-86
2024/01/31 01:04:56;;;;;;;2.93;1.30;;;7.40;99.90;;;;;;4966556;28;20197;-87
2024/01/31 01:07:21;;;;;;;1.80;1.07;;;7.40;99.90;;;;;;4976145;28;20593;-88
2024/01/31 01:09:47;;;;;;;1.53;1.20;;;7.30;99.90;;;;;;4973977;28;20635;-84
2024/01/31 01:12:13;;;;;;;2.13;1.30;;;7.40;99.90;;;;;;4962775;28;20212;-85
2024/01/31 01:14:39;;;;;;;2.20;1.27;;;7.30;99.90;;;;;;4982952;28;20200;-86
2024/01/31 01:17:05;;;;;;;1.77;1.37;;;7.30;99.90;;;;;;4974774;28;20242;-85
2024/01/31 01:19:31;;;;;;;2.30;1.20;;;7.30;99.90;;;;;;4983806;28;20535;-84
2024/01/31 01:21:57;;;;;;;1.93;1.37;;;7.30;99.90;;;;;;4962945;28;20215;-85
2024/01/31 01:24:24;;;;;;;1.47;1.23;;;7.10;99.90;;;;;;4964665;28;20624;-84
2024/01/31 01:26:50;;;;;;;2.07;1.00;;;7.00;99.90;;;;;;4970790;28;20303;-87
2024/01/31 01:29:16;;;;;;;2.17;1.00;;;7.00;99.90;;;;;;4982076;28;20271;-85
2024/01/31 01:31:42;;;;;;;4.50;1.10;;;7.10;99.90;;;;;;4976691;28;20184;-86
2024/01/31 01:34:09;;;;;;;1.17;0.80;;;7.10;99.90;;;;;;4981244;28;20583;-89
2024/01/31 01:36:34;;;;;;;2.30;0.80;;;7.10;99.90;;;;;;4976815;28;20255;-86
2024/01/31 01:39:00;;;;;;;3.80;0.87;;;7.10;99.90;;;;;;4967798;28;20620;-89
2024/01/31 01:41:26;;;;;;;1.53;0.70;;;7.10;99.90;;;;;;4968818;28;20585;-86
2024/01/31 01:43:52;;;;;;;3.93;0.87;;;7.10;99.90;;;;;;4963569;28;20250;-90
2024/01/31 01:46:22;;;;;;;1.97;0.80;;;7.00;99.90;;;;;;4955760;28;20190;-89
2024/01/31 01:48:50;;;;;;;1.17;0.73;;;7.00;99.90;;;;;;4965957;28;20227;-87
2024/01/31 01:51:17;;;;;;;2.33;0.80;;;6.90;99.90;;;;;;5457844;22;20706;-93
2024/01/31 01:53:45;;;;;;;1.10;0.73;;;6.90;99.90;;;;;;5033946;28;20182;-96
2024/01/31 01:56:14;;;;;;;2.87;0.97;;;6.80;99.90;;;;;;5035626;28;20178;-93
2024/01/31 01:58:42;;;;;;;3.23;0.80;;;6.80;99.90;;;;;;5038577;28;20561;-96
2024/01/31 02:01:10;;;;;;;2.53;0.83;;;6.70;99.90;;;;;;5036166;28;20202;-94
2024/01/31 02:03:55;;;;;;;1.93;1.30;;;6.80;99.90;;;;;;5037930;28;20189;-95
2024/01/31 02:06:23;;;;;;;1.33;0.97;;;6.70;99.90;;;;;;5035932;28;20210;-96
2024/01/31 02:08:49;;;;;;;1.83;0.87;;;6.70;99.90;;;;;;5034374;28;20520;-96
2024/01/31 02:11:15;;;;;;;2.07;0.80;;;6.70;99.90;;;;;;5036074;28;20597;-95
2024/01/31 02:13:43;;;;;;;1.87;1.00;;;6.70;99.90;;;;;;5035233;28;20244;-95
2024/01/31 02:16:08;;;;;;;2.00;1.17;;;6.70;99.90;;;;;;5036255;28;20221;-93
2024/01/31 02:18:34;;;;;;;1.70;1.03;;;6.80;99.90;;;;;;5038788;28;20183;-96
2024/01/31 02:21:00;;;;;;;3.23;1.13;;;6.80;99.90;;;;;;5039240;28;20182;-93
2024/01/31 02:23:36;;;;;;;1.03;0.80;;;6.70;99.90;;;;;;5040014;28;20272;-96
2024/01/31 02:26:02;;;;;;;3.27;0.80;;;6.70;99.90;;;;;;5040097;28;20278;-96
2024/01/31 02:28:27;;;;;;;2.10;1.00;;;6.70;99.90;;;;;;5042266;28;20253;-95
2024/01/31 02:30:54;;;;;;;2.40;1.10;;;6.70;99.90;;;;;;5040364;28;20190;-93
2024/01/31 02:33:26;;;;;;;1.37;0.83;;;6.60;99.90;;;;;;5040913;28;20509;-94
2024/01/31 02:35:51;;;;;;;1.00;0.90;;;6.50;99.90;;;;;;5040822;28;20213;-93
2024/01/31 02:38:17;;;;;;;1.10;0.90;;;6.60;99.90;;;;;;5041269;28;20178;-96
2024/01/31 02:40:43;;;;;;;1.03;0.80;;;6.60;99.90;;;;;;5041561;28;20178;-96
2024/01/31 02:43:17;;;;;;;2.20;0.97;;;6.60;99.90;;;;;;5039397;28;20269;-96
2024/01/31 02:45:42;;;;;;;2.10;1.00;;;6.60;99.90;;;;;;5039583;28;20232;-92
2024/01/31 02:48:08;;;;;;;1.77;1.10;;;6.60;99.90;;;;;;5041400;28;20202;-95
2024/01/31 02:50:34;;;;;;;3.47;0.90;;;6.60;99.90;;;;;;5038347;28;20269;-95
2024/01/31 02:53:04;;;;;;;4.07;1.30;;;6.60;99.90;;;;;;5039964;28;20234;-90
2024/01/31 02:55:30;;;;;;;1.73;0.90;;;6.50;99.90;;;;;;5041783;28;20236;-95
2024/01/31 02:57:56;;;;;;;5.00;1.17;;;6.60;99.90;;;;;;5041388;28;20294;-92
2024/01/31 03:00:21;;;;;;;2.57;1.00;;;6.60;99.90;;;;;;5039920;28;20171;-94
2024/01/31 03:03:01;;;;;;;1.70;0.90;;;6.60;99.90;;;;;;5039215;28;20183;-94
2024/01/31 03:05:27;;;;;;;3.77;1.00;;;6.60;99.90;;;;;;5041110;28;20522;-92
2024/01/31 03:07:53;;;;;;;3.10;1.20;;;6.60;99.90;;;;;;5040068;28;20209;-94
2024/01/31 03:10:18;;;;;;;3.37;0.90;;;6.60;99.90;;;;;;5038097;28;20254;-94
2024/01/31 03:12:46;;;;;;;2.03;0.73;;;6.50;99.90;;;;;;5038620;28;20237;-96
2024/01/31 03:15:12;;;;;;;2.40;0.67;;;6.60;99.90;;;;;;5040791;28;20647;-94
2024/01/31 03:17:38;;;;;;;2.03;0.83;;;6.60;99.90;;;;;;5042363;28;20178;-94
2024/01/31 03:20:05;;;;;;;3.20;1.00;;;6.50;99.90;;;;;;5042921;28;20190;-96
2024/01/31 03:22:31;;;;;;;2.47;1.00;;;6.50;99.90;;;;;;5038474;28;20668;-93
2024/01/31 03:24:57;;;;;;;4.63;0.90;;;6.50;99.90;;;;;;5041253;28;20258;-94
2024/01/31 03:27:23;;;;;;;2.23;0.80;;;6.40;99.90;;;;;;5052530;28;20221;-95
2024/01/31 03:29:49;;;;;;;1.83;1.00;;;6.40;99.90;;;;;;5041001;28;20197;-94
2024/01/31 03:32:15;;;;;;;3.23;0.80;;;6.40;99.90;;;;;;5038834;28;20182;-95
2024/01/31 03:34:41;;;;;;;5.37;0.77;;;6.40;99.90;;;;;;5040176;28;20277;-94
2024/01/31 03:37:06;;;;;;;1.10;0.50;;;6.40;99.90;;;;;;5042413;28;20193;-95
2024/01/31 03:39:54;;;;;;;0.40;0.40;;;6.40;99.90;;;;;;5044733;28;20186;-95
2024/01/31 03:42:20;;;;;;;0.50;0.50;;;6.40;99.90;;;;;;5042419;28;20218;-96
2024/01/31 03:44:54;;;;;;;3.43;0.60;;;6.30;99.90;;;;;;5040670;28;20639;-96
2024/01/31 03:47:19;;;;;;;1.80;0.80;;;6.20;99.90;;;;;;5039370;28;20297;-96
2024/01/31 03:49:46;;;;;;;1.63;0.70;;;6.20;99.90;;;;;;5041419;28;20549;-95
2024/01/31 03:52:12;;;;;;;1.97;0.90;;;6.20;99.90;;;;;;5040776;28;20269;-94
2024/01/31 03:54:46;;;;;;;2.90;0.90;;;6.10;99.90;;;;;;5038965;28;20182;-95
2024/01/31 03:57:12;;;;;;;1.83;0.80;;;6.10;99.90;;;;;;5038414;28;20182;-95
2024/01/31 03:59:38;;;;;;;1.80;0.63;;;6.10;99.90;;;;;;5038510;28;20182;-94
2024/01/31 04:02:04;;;;;;;1.37;0.70;;;6.00;99.90;;;;;;5039356;28;20293;-96
2024/01/31 04:04:32;;;;;;;2.57;1.07;;;6.00;99.90;;;;;;5038275;28;20313;-94
2024/01/31 04:06:57;;;;;;;2.40;1.17;;;6.00;99.90;;;;;;5029623;28;20221;-95
2024/01/31 04:09:23;;;;;;;2.87;0.90;;;6.00;99.90;;;;;;5037089;28;20190;-96
2024/01/31 04:11:49;;;;;;;1.70;0.80;;;6.00;99.90;;;;;;5036607;28;20189;-95
2024/01/31 04:14:15;;;;;;;2.40;0.90;;;5.90;99.90;;;;;;5037509;28;20197;-96
2024/01/31 04:16:40;;;;;;;1.73;0.67;;;5.90;99.90;;;;;;5035757;28;20190;-96
2024/01/31 04:19:07;;;;;;;1.03;0.80;;;5.90;99.90;;;;;;5037232;28;20605;-94
2024/01/31 04:21:33;;;;;;;1.67;0.87;;;5.90;99.90;;;;;;5038254;28;20178;-96
2024/01/31 04:23:59;;;;;;;2.00;1.20;;;5.90;99.90;;;;;;5038923;28;20248;-95
2024/01/31 04:26:24;;;;;;;1.50;0.87;;;5.90;99.90;;;;;;5036925;28;20281;-96
2024/01/31 04:28:52;;;;;;;2.07;1.00;;;5.80;99.90;;;;;;5037346;28;20206;-94
2024/01/31 04:31:18;;;;;;;3.73;1.00;;;5.70;99.90;;;;;;5036627;28;20183;-94
2024/01/31 04:33:44;;;;;;;1.57;1.07;;;5.70;99.90;;;;;;5039558;28;20240;-93
2024/01/31 04:36:10;;;;;;;2.17;1.30;;;5.80;99.90;;;;;;5039171;28;20214;-95
2024/01/31 04:38:36;;;;;;;2.50;1.07;;;5.70;99.90;;;;;;5036935;28;20213;-94
2024/01/31 04:41:03;;;;;;;1.17;0.90;;;5.70;99.90;;;;;;5037149;28;20190;-96
2024/01/31 04:43:29;;;;;;;3.13;1.13;;;5.60;99.90;;;;;;5037585;28;20183;-94
2024/01/31 04:45:55;;;;;;;2.10;1.10;;;5.50;99.90;;;;;;5036811;28;20194;-95
2024/01/31 04:48:21;;;;;;;2.27;0.90;;;5.60;99.90;;;;;;5035697;28;20224;-92
2024/01/31 04:50:46;;;;;;;2.50;1.07;;;5.50;99.90;;;;;;5036298;28;20528;-91
2024/01/31 04:53:12;;;;;;;0.80;0.80;;;5.60;99.90;;;;;;5037623;28;20186;-93
2024/01/31 04:55:48;;;;;;;3.63;0.80;;;5.50;99.90;;;;;;5037955;28;20178;-94
2024/01/31 04:58:14;;;;;;;1.73;0.87;;;5.50;99.90;;;;;;5035402;28;20617;-93
2024/01/31 05:00:40;;;;;;;1.37;0.70;;;5.50;99.90;;;;;;5035237;28;20182;-95
2024/01/31 05:03:06;;;;;;;5.47;0.90;;;5.50;99.90;;;;;;5036925;28;20186;-95
2024/01/31 05:05:33;;;;;;;1.33;0.90;;;5.50;99.90;;;;;;5037259;28;20253;-96
2024/01/31 05:07:58;;;;;;;1.20;0.60;;;5.50;99.90;;;;;;5027932;28;20214;-95
2024/01/31 05:10:24;;;;;;;1.10;0.80;;;5.50;99.90;;;;;;5035405;28;20613;-95
2024/01/31 05:12:50;;;;;;;1.63;1.40;;;5.50;99.90;;;;;;5035211;28;20186;-94
2024/01/31 05:15:18;;;;;;;1.50;0.80;;;5.40;99.90;;;;;;5034752;28;20186;-94
2024/01/31 05:17:44;;;;;;;2.73;0.90;;;5.50;99.90;;;;;;5034888;28;20225;-94
2024/01/31 05:20:09;;;;;;;2.73;1.00;;;5.50;99.90;;;;;;5036589;28;20202;-94
2024/01/31 05:22:35;;;;;;;1.90;1.13;;;5.50;99.90;;;;;;5034796;28;20188;-94
2024/01/31 05:25:07;;;;;;;1.20;0.83;;;5.50;99.90;;;;;;5034584;28;20655;-94
2024/01/31 05:27:36;;;;;;;2.60;1.10;;;5.40;99.90;;;;;;5034596;28;20268;-94
2024/01/31 05:30:03;;;;;;;6.50;0.90;;;5.30;99.90;;;;;;5036311;28;20170;-93
2024/01/31 05:32:31;;;;;;;2.10;1.00;;;5.40;99.90;;;;;;5034147;28;20178;-95
2024/01/31 05:34:58;;;;;;;2.47;0.77;;;5.30;99.90;;;;;;5026521;28;20220;-93
2024/01/31 05:37:24;;;;;;;2.27;0.83;;;5.30;99.90;;;;;;5034254;28;20194;-93
2024/01/31 05:39:50;;;;;;;1.40;0.60;;;5.40;99.90;;;;;;5035541;28;20178;-95
2024/01/31 05:42:15;;;;;;;1.10;0.60;;;5.40;99.90;;;;;;5034710;28;20188;-94
2024/01/31 05:44:42;;;;;;;0.77;0.50;;;5.40;99.90;;;;;;5034930;28;20174;-92
2024/01/31 05:47:08;;;;;;;2.67;0.57;;;5.40;99.90;;;;;;5033644;28;20210;-93
2024/01/31 05:49:34;;;;;;;2.37;0.70;;;5.40;99.90;;;;;;5033975;28;20178;-93
2024/01/31 05:51:59;;;;;;;2.73;0.97;;;5.40;99.90;;;;;;5033426;28;20313;-94
2024/01/31 05:54:25;;;;;;;2.23;0.60;;;5.50;99.90;;;;;;5034759;28;20214;-96
2024/01/31 05:56:52;;;;;;;1.73;0.50;;;5.50;99.90;;;;;;5036176;28;20261;-95
2024/01/31 05:59:18;;;;;;;1.70;0.43;;;5.40;99.90;;;;;;5035787;28;20576;-94
2024/01/31 06:01:43;;;;;;;3.50;0.60;;;5.50;99.90;;;;;;5035449;28;20204;-91
2024/01/31 06:04:09;;;;;;;2.70;0.67;;;5.40;99.90;;;;;;5035556;28;20179;-95
2024/01/31 06:06:35;;;;;;;1.90;0.73;;;5.40;99.90;;;;;;5033578;28;20625;-94
2024/01/31 06:09:01;;;;;;;0.63;0.50;;;5.30;99.90;;;;;;5038369;28;20210;-95
2024/01/31 06:11:27;;;;;;;0.60;0.60;;;5.30;99.90;;;;;;5034919;28;20186;-93
2024/01/31 06:13:53;;;;;;;1.33;0.67;;;5.30;99.90;;;;;;5034425;28;20193;-95
2024/01/31 06:16:19;;;;;;;2.57;0.70;;;5.30;99.90;;;;;;5035230;28;20193;-94
2024/01/31 06:18:45;;;;;;;1.77;0.47;;;5.40;99.90;;;;;;5034544;28;20178;-95
2024/01/31 06:21:11;;;;;;;1.80;0.70;;;5.40;99.90;;;;;;5034097;28;20190;-92
2024/01/31 06:23:37;;;;;;;3.10;0.60;;;5.30;99.90;;;;;;5035663;28;20204;-93
2024/01/31 06:26:04;;;;;;;1.20;0.60;;;5.30;99.90;;;;;;5035646;28;20205;-92
2024/01/31 06:28:30;;;;;;;1.40;0.50;;;5.30;99.90;;;;;;5034388;28;20206;-92
2024/01/31 06:30:59;;;;;;;3.47;0.70;;;5.30;99.90;;;;;;5034126;28;20186;-93
2024/01/31 06:33:31;;;;;;;1.37;0.63;;;5.30;99.90;;;;;;5034527;28;20178;-94
2024/01/31 06:36:04;;;;;;;1.17;0.43;;;5.30;99.90;;;;;;5035105;28;20234;-95
2024/01/31 06:38:30;;;;;;;1.00;0.53;;;5.30;99.90;;;;;;5033267;28;20174;-92
2024/01/31 06:40:58;;;;;;;0.90;0.50;;;5.30;99.90;;;;;;5033737;28;20198;-95
2024/01/31 06:43:27;;;;;;;0.67;0.50;;;5.20;99.90;;;;;;5033781;28;20236;-95
2024/01/31 06:46:00;;;;;;;1.27;0.30;;;5.20;99.90;;;;;;5035212;28;20273;-94
2024/01/31 06:48:25;;;;;;;2.83;0.50;;;5.20;99.90;;;;;;5033649;28;20668;-94
2024/01/31 06:50:51;;;;;;;1.13;0.50;;;5.30;99.90;;;;;;5033583;28;20183;-92
2024/01/31 06:53:17;;;;;;;1.07;0.50;;;5.20;99.90;;;;;;5034756;28;20191;-95
2024/01/31 06:55:45;;;;;;;3.27;0.47;;;5.20;99.90;;;;;;5033584;28;20200;-94
2024/01/31 06:58:11;;;;;;;2.40;0.60;;;5.20;99.90;;;;;;5035607;28;20182;-94
2024/01/31 07:00:37;;;;;;;2.60;0.50;;;5.30;99.90;;;;;;5034565;28;20182;-93
2024/01/31 07:03:03;;;;;;;1.17;0.40;;;5.30;99.90;;;;;;5039952;28;20179;-95
2024/01/31 07:05:29;;;;;;;1.40;0.50;;;5.30;99.90;;;;;;5039857;28;20182;-93
2024/01/31 07:07:55;;;;;;;2.70;0.77;;;5.30;99.90;;;;;;5036920;28;20560;-92
2024/01/31 07:10:21;;;;;;;2.30;0.77;;;5.30;99.90;;;;;;5037182;28;20190;-95
2024/01/31 07:12:46;;;;;;;1.53;0.57;;;5.30;99.90;;;;;;5037314;28;20194;-93
2024/01/31 07:15:17;;;;;;;1.50;0.60;;;5.30;99.90;;;;;;5037647;28;20672;-94
2024/01/31 07:17:42;;;;;;;1.90;0.60;;;5.30;99.90;;;;;;5037266;28;20193;-94
2024/01/31 07:20:09;;;;;;;2.67;0.67;;;5.20;99.90;;;;;;5037067;28;20523;-93
2024/01/31 07:22:34;;;;;;;5.47;1.10;;;5.20;99.90;;;;;;5037959;28;20187;-93
2024/01/31 07:25:00;;;;;;;2.13;0.77;;;5.10;99.90;;;;;;5037460;28;20189;-93
2024/01/31 07:27:26;;;;;;;2.87;0.87;;;5.10;99.90;;;;;;5037006;28;20548;-91
2024/01/31 07:29:52;;;;;;;6.23;0.70;;;5.10;99.90;;;;;;5037520;28;20190;-91
2024/01/31 07:32:17;;;;;;;2.97;0.77;;;5.10;99.90;;;;;;5038615;28;20183;-94
2024/01/31 07:34:43;;;;;;;4.23;1.10;;;5.10;99.90;;;;;;5038250;28;20266;-96
2024/01/31 07:37:11;;;;;;;1.63;0.80;;;5.10;99.90;;;;;;5041109;28;20205;-94
2024/01/31 07:39:37;;;;;;;2.90;1.20;;;5.20;99.90;;;;;;5038594;28;20183;-95
2024/01/31 07:42:03;;;;;;;3.27;1.20;;;5.20;99.90;;;;;;5040224;28;20201;-91
2024/01/31 07:44:29;;;;;;;3.60;0.93;;;5.20;99.90;;;;;;5038509;28;20698;-93
2024/01/31 07:47:05;;;;;;;2.33;1.10;;;5.20;99.90;;;;;;5036643;28;20186;-93
2024/01/31 07:49:31;;;;;;;5.20;1.10;;;5.20;99.90;;;;;;5038010;28;20636;-95
2024/01/31 07:51:57;;;;;;;3.37;1.00;;;5.20;99.90;;;;;;5035447;28;20226;-93
2024/01/31 07:54:23;;;;;;;6.53;1.00;;;5.10;99.90;;;;;;5036096;28;20187;-92
2024/01/31 07:56:51;;;;;;;2.83;0.97;;;5.10;99.90;;;;;;5043998;28;20262;-94
2024/01/31 07:59:17;;;;;;;4.90;1.20;;;5.10;99.90;;;;;;5046317;28;20181;-92
2024/01/31 08:01:43;;;;;;;5.60;1.10;;;5.00;99.90;;;;;;5044591;28;20174;-95
2024/01/31 08:04:08;;;;;;;5.53;1.13;;;5.00;99.90;;;;;;5038436;28;20206;-96
2024/01/31 08:06:42;;;;;;;5.67;1.17;;;5.00;99.90;;;;;;5038307;28;20242;-94
2024/01/31 08:09:28;;;;;;;7.57;1.60;;;5.20;99.90;;;;;;5037834;28;20253;-91
2024/01/31 08:11:54;;;;;;;5.67;1.17;;;5.10;99.90;;;;;;5037162;28;20236;-93
2024/01/31 08:14:20;;;;;;;4.73;0.93;;;5.10;99.90;;;;;;5034318;28;20186;-94
2024/01/31 08:16:49;;;;;;;2.73;0.90;;;5.10;99.90;;;;;;5034030;28;20190;-94
2024/01/31 08:19:14;;;;;;;3.23;1.00;;;5.10;99.90;;;;;;5034426;28;20198;-93
2024/01/31 08:21:40;;;;;;;3.03;1.20;;;5.10;99.90;;;;;;5035435;28;20216;-93
2024/01/31 08:24:07;;;;;;;3.73;1.60;;;5.00;99.90;;;;;;5035006;28;20632;-94
2024/01/31 08:26:32;;;;;;;2.87;1.40;;;5.00;99.90;;;;;;5034967;28;20186;-95
2024/01/31 08:28:58;;;;;;;4.03;1.10;;;5.10;99.90;;;;;;5033969;28;20259;-93
2024/01/31 08:31:24;;;;;;;2.17;0.90;;;5.00;99.90;;;;;;5036658;28;20174;-94
2024/01/31 08:33:50;;;;;;;2.07;0.87;;;4.90;99.90;;;;;;5035945;28;20171;-92
2024/01/31 08:36:18;;;;;;;3.07;1.03;;;5.00;99.90;;;;;;5034678;28;20183;-93
2024/01/31 08:38:43;;;;;;;1.57;1.10;;;5.00;99.90;;;;;;5034632;28;20289;-94
2024/01/31 08:41:12;;;;;;;0.90;0.63;;;5.00;99.90;;;;;;5035137;28;20573;-95
2024/01/31 08:43:38;;;;;;;1.87;0.70;;;5.00;99.90;;;;;;5034597;28;20190;-93
2024/01/31 08:46:04;;;;;;;1.73;0.60;;;5.00;99.90;;;;;;5034459;28;20531;-90
2024/01/31 08:48:31;;;;;;;0.90;0.40;;;5.00;99.90;;;;;;5034983;28;20214;-92
2024/01/31 08:50:58;;;;;;;1.80;0.60;;;5.00;99.90;;;;;;5034997;28;20190;-95
2024/01/31 08:53:24;;;;;;;2.23;0.93;;;5.00;99.90;;;;;;5034767;28;20187;-92
2024/01/31 08:55:49;;;;;;;0.83;0.50;;;5.00;99.90;;;;;;5033006;28;20192;-92
2024/01/31 08:58:25;;;;;;;1.40;0.70;;;5.00;99.90;;;;;;5033470;28;20204;-93
2024/01/31 09:00:51;;;;;;;1.03;0.60;;;5.00;99.90;;;;;;5035597;28;20181;-92
2024/01/31 09:03:17;;;;;;;1.93;0.70;;;5.00;99.90;;;;;;5034144;28;20198;-94
2024/01/31 09:05:43;;;;;;;4.10;0.70;;;4.90;99.90;;;;;;5035318;28;20181;-93
2024/01/31 09:08:09;;;;;;;1.37;0.77;;;5.10;99.90;;;;;;5033663;28;20226;-92
2024/01/31 09:10:35;;;;;;;0.87;0.60;;;5.10;99.90;;;;;;5033935;28;20651;-92
2024/01/31 09:13:01;;;;;;;4.40;1.20;;;5.10;99.90;;;;;;5033624;28;20255;-91
2024/01/31 09:15:27;;;;;;;5.53;1.10;;;5.10;99.90;;;;;;5033581;28;20186;-92
2024/01/31 09:17:54;;;;;;;2.53;1.00;;;5.00;99.90;;;;;;5035043;28;20209;-92
2024/01/31 09:20:20;;;;;;;1.87;1.30;;;5.00;99.90;;;;;;5033551;28;20186;-93
2024/01/31 09:22:46;;;;;;;2.70;1.30;;;5.00;99.90;;;;;;5033911;28;20187;-94
2024/01/31 09:25:14;;;;;;;3.13;1.30;;;5.00;99.90;;;;;;5033908;28;20530;-95
2024/01/31 09:28:00;;;;;;;7.27;1.50;;;4.90;99.90;;;;;;5034327;28;20202;-91
2024/01/31 09:30:26;;;;;;;5.83;1.83;;;5.00;99.90;;;;;;5033961;28;20178;-93
2024/01/31 09:32:52;;;;;;;10.90;1.60;;;5.00;99.90;;;;;;5034113;28;20197;-93
2024/01/31 09:35:18;;;;;;;3.23;1.60;;;5.00;99.90;;;;;;5033874;28;20221;-90
2024/01/31 09:37:56;;;;;;;2.47;1.50;;;5.00;99.90;;;;;;5033022;28;20216;-92
2024/01/31 09:40:23;;;;;;;5.00;1.47;;;5.00;99.90;;;;;;5033252;28;20304;-94
2024/01/31 09:42:52;;;;;;;7.30;1.60;;;5.10;99.90;;;;;;5033938;28;20183;-92
2024/01/31 09:45:18;;;;;;;4.00;1.70;;;5.10;99.90;;;;;;5032989;28;20606;-93
2024/01/31 09:47:51;;;;;;;4.07;1.50;;;5.10;99.90;;;;;;5032352;28;20210;-90
2024/01/31 09:50:19;;;;;;;2.43;1.60;;;5.10;99.90;;;;;;5032836;28;20672;-89
2024/01/31 09:52:51;;;;;;;1.77;1.30;;;5.10;99.90;;;;;;5033283;28;20325;-92
2024/01/31 09:55:19;;;;;;;4.90;1.40;;;5.20;99.90;;;;;;5032940;28;20190;-95
2024/01/31 09:57:45;;;;;;;4.37;1.20;;;5.20;99.90;;;;;;5032864;28;20175;-91
2024/01/31 10:00:11;;;;;;;2.70;1.03;;;5.20;99.90;;;;;;5032787;28;20181;-90
2024/01/31 10:02:40;;;;;;;3.17;1.40;;;5.10;99.90;;;;;;5031216;28;20848;-90
2024/01/31 10:05:06;;;;;;;1.77;1.27;;;5.10;99.90;;;;;;5030986;28;20205;-92
2024/01/31 10:07:46;;;;;;;3.43;1.30;;;5.20;99.90;;;;;;5029789;28;20214;-89
2024/01/31 10:10:12;;;;;;;2.43;1.20;;;5.20;99.90;;;;;;5032367;28;20589;-89
2024/01/31 10:12:38;;;;;;;3.90;1.10;;;5.20;99.90;;;;;;5032420;28;20183;-90
2024/01/31 10:15:09;;;;;;;2.00;1.30;;;5.30;99.90;;;;;;5033050;28;20646;-90
2024/01/31 10:17:41;;;;;;;3.33;1.37;;;5.20;99.90;;;;;;5032575;28;20992;-91
2024/01/31 10:20:10;;;;;;;6.03;1.50;;;5.30;99.90;;;;;;5032178;28;20186;-91
2024/01/31 10:22:42;;;;;;;5.63;1.27;;;5.20;99.90;;;;;;5032338;28;20174;-93
2024/01/31 10:25:08;;;;;;;4.27;1.60;;;5.30;99.90;;;;;;5033963;28;20170;-90
2024/01/31 10:27:53;;;;;;;2.63;1.10;;;5.30;99.90;;;;;;5033505;28;20198;-93
2024/01/31 10:30:19;;;;;;;4.93;1.53;;;5.30;99.90;;;;;;5032186;28;20185;-91
2024/01/31 10:32:46;;;;;;;2.53;1.00;;;5.30;99.90;;;;;;5031840;28;20625;-88
2024/01/31 10:35:12;;;;;;;4.07;1.60;;;5.30;99.90;;;;;;5031343;28;20183;-87
2024/01/31 10:37:39;;;;;;;4.23;1.37;;;5.30;99.90;;;;;;5031412;28;20206;-89
2024/01/31 10:40:12;;;;;;;4.27;1.50;;;5.30;99.90;;;;;;5035158;28;20179;-89
2024/01/31 10:42:38;;;;;;;2.53;1.30;;;5.30;99.90;;;;;;5035383;28;20666;-90
2024/01/31 10:45:05;;;;;;;4.27;1.80;;;5.30;99.90;;;;;;5035537;28;20183;-90
2024/01/31 10:47:33;;;;;;;4.87;1.40;;;5.30;99.90;;;;;;5037167;28;20230;-91
2024/01/31 10:50:01;;;;;;;2.50;1.30;;;5.30;99.90;;;;;;5029132;28;20186;-92
2024/01/31 10:52:31;;;;;;;2.73;1.53;;;5.40;99.90;;;;;;5036754;28;20737;-88
2024/01/31 10:54:59;;;;;;;3.10;1.20;;;5.40;99.90;;;;;;5038664;28;20228;-91
2024/01/31 10:57:29;;;;;;;3.53;1.70;;;5.40;99.90;;;;;;5037200;28;20190;-90
2024/01/31 10:59:56;;;;;;;2.90;1.57;;;5.50;99.90;;;;;;5037224;28;20179;-92
2024/01/31 11:02:33;;;;;;;4.03;1.30;;;5.50;99.90;;;;;;5037094;28;20264;-90
2024/01/31 11:05:06;;;;;;;8.40;2.10;;;5.40;99.90;;;;;;5037203;28;20182;-89
2024/01/31 11:07:42;;;;;;;3.90;2.10;;;5.40;99.90;;;;;;5036733;28;20715;-90
2024/01/31 11:10:23;;;;;;;3.73;2.10;;;5.50;99.90;;;;;;5031530;28;20189;-89
2024/01/31 11:13:00;;;;;;;3.30;1.80;;;5.40;99.90;;;;;;5037564;28;20277;-91
2024/01/31 11:15:34;;;;;;;2.73;1.97;;;5.30;99.90;;;;;;5036131;28;20648;-91
2024/01/31 11:18:11;;;;;;;4.97;2.13;;;5.30;99.90;;;;;;5036327;28;20183;-87
2024/01/31 11:20:39;;;;;;;2.20;1.73;;;5.30;99.90;;;;;;5036811;28;20222;-89
2024/01/31 11:23:05;;;;;;;4.00;1.93;;;5.30;99.90;;;;;;5037658;28;20182;-88
2024/01/31 11:25:38;;;;;;;5.40;2.17;;;5.30;99.90;;;;;;5036374;28;20186;-91
2024/01/31 11:28:05;;;;;;;4.20;1.50;;;5.30;99.90;;;;;;5028418;28;20248;-91
2024/01/31 11:30:31;;;;;;;2.60;1.47;;;5.30;99.90;;;;;;5035658;28;20190;-90
2024/01/31 11:33:00;;;;;;;1.50;1.40;;;5.30;99.90;;;;;;5035465;28;20625;-86
2024/01/31 11:35:28;;;;;;;2.50;1.53;;;5.30;99.90;;;;;;5035606;28;20187;-91
2024/01/31 11:37:59;;;;;;;2.63;1.30;;;5.40;99.90;;;;;;5035806;28;20194;-95
2024/01/31 11:40:25;;;;;;;3.23;1.73;;;5.50;99.90;;;;;;5035792;28;20190;-92
2024/01/31 11:43:01;;;;;;;2.77;1.50;;;5.50;99.90;;;;;;5035620;28;20252;-92
2024/01/31 11:45:27;;;;;;;2.97;1.83;;;5.60;99.90;;;;;;5036770;28;20186;-90
2024/01/31 11:47:54;;;;;;;1.87;1.77;;;5.60;99.90;;;;;;5034139;28;20687;-92
2024/01/31 11:50:22;;;;;;;2.73;1.90;;;5.60;99.90;;;;;;5033619;28;20221;-91
2024/01/31 11:52:48;;;;;;;2.27;2.00;;;5.50;99.90;;;;;;5035199;28;20246;-90
2024/01/31 11:55:23;;;;;;;2.37;1.80;;;5.50;99.90;;;;;;5036260;28;20170;-90
2024/01/31 11:57:50;;;;;;;3.37;2.00;;;5.40;99.90;;;;;;5035155;28;20175;-91
2024/01/31 12:00:16;;;;;;;2.87;1.83;;;5.40;99.90;;;;;;5035191;28;20247;-91
2024/01/31 12:02:43;;;;;;;2.03;1.83;;;5.40;99.90;;;;;;5035019;28;20178;-90
2024/01/31 12:05:08;;;;;;;3.07;2.27;;;5.40;99.90;;;;;;5036008;28;20248;-92
2024/01/31 12:07:34;;;;;;;1.70;1.60;;;5.40;99.90;;;;;;5034814;28;20245;-89
2024/01/31 12:10:00;;;;;;;2.20;2.00;;;5.50;99.90;;;;;;5035173;28;20182;-91
2024/01/31 12:12:29;;;;;;;2.03;1.87;;;5.50;99.90;;;;;;5035871;28;20181;-92
2024/01/31 12:14:55;;;;;;;2.90;1.90;;;5.50;99.90;;;;;;5035553;28;20194;-91
2024/01/31 12:17:25;;;;;;;4.17;2.20;;;5.50;99.90;;;;;;5035422;28;20183;-91
2024/01/31 12:20:04;;;;;;;3.57;1.93;;;5.50;99.90;;;;;;5034886;28;20178;-90
2024/01/31 12:22:33;;;;;;;3.33;2.03;;;5.50;99.90;;;;;;5034616;28;20240;-89
2024/01/31 12:25:01;;;;;;;1.90;1.77;;;5.40;99.90;;;;;;5034961;28;20518;-92
2024/01/31 12:27:27;;;;;;;2.13;1.90;;;5.40;99.90;;;;;;5035791;28;20237;-91
2024/01/31 12:29:53;;;;;;;3.00;1.50;;;5.40;99.90;;;;;;5035622;28;20232;-92
2024/01/31 12:32:19;;;;;;;2.87;1.30;;;5.40;99.90;;;;;;5034799;28;20272;-89
2024/01/31 12:34:45;;;;;;;3.00;1.20;;;5.50;99.90;;;;;;5036835;28;20712;-91
2024/01/31 12:37:11;;;;;;;2.00;1.13;;;5.50;99.90;;;;;;5040699;28;20189;-91
2024/01/31 12:39:36;;;;;;;1.97;1.00;;;5.50;99.90;;;;;;5034155;28;20187;-92
2024/01/31 12:42:06;;;;;;;1.10;1.00;;;5.60;99.90;;;;;;5035768;28;20221;-90
2024/01/31 12:44:32;;;;;;;3.60;1.37;;;5.50;99.90;;;;;;5035646;28;20205;-92
2024/01/31 12:46:58;;;;;;;4.27;1.40;;;5.50;99.90;;;;;;5035374;28;20182;-92
2024/01/31 12:49:28;;;;;;;2.10;1.17;;;5.60;99.90;;;;;;5034498;28;20183;-89
2024/01/31 12:51:53;;;;;;;1.27;1.00;;;5.60;99.90;;;;;;5034162;28;20325;-92
2024/01/31 12:54:19;;;;;;;2.03;1.47;;;5.60;99.90;;;;;;5035415;28;20253;-89
2024/01/31 12:56:45;;;;;;;4.33;1.53;;;5.60;99.90;;;;;;5033915;28;20182;-90
2024/01/31 12:59:11;;;;;;;1.53;1.30;;;5.60;99.90;;;;;;5033697;28;20214;-88